sensor_id;sensor_type;location;lat;lon;timestamp;pressure;altitude;pressure_sealevel;temperature;humidity
55675;BME280;41562;44.330;23.802;2023-04-23T00:00:06;100323.34;;;10.68;100.00
55675;BME280;41562;44.330;23.802;2023-04-23T00:02:34;100314.00;;;10.60;100.00
55675;BME280;41562;44.330;23.802;2023-04-23T00:05:04;100309.72;;;10.49;100.00
55675;BME280;41562;44.330;23.802;2023-04-23T00:07:32;100308.63;;;10.50;100.00
55675;BME280;41562;44.330;23.802;2023-04-23T00:10:01;100305.16;;;10.44;100.00
55675;BME280;41562;44.330;23.802;2023-04-23T00:12:30;100311.59;;;10.43;100.00
55675;BME280;41562;44.330;23.802;2023-04-23T00:14:59;100312.94;;;10.21;100.00
55675;BME280;41562;44.330;23.802;2023-04-23T00:17:27;100304.38;;;10.39;100.00
55675;BME280;41562;44.330;23.802;2023-04-23T00:19:54;100312.38;;;10.59;100.00
55675;BME280;41562;44.330;23.802;2023-04-23T00:22:21;100306.50;;;10.57;100.00
55675;BME280;41562;44.330;23.802;2023-04-23T00:24:49;100315.34;;;10.53;100.00
55675;BME280;41562;44.330;23.802;2023-04-23T00:27:16;100309.44;;;10.51;100.00
55675;BME280;41562;44.330;23.802;2023-04-23T00:29:43;100305.44;;;10.28;100.00
55675;BME280;41562;44.330;23.802;2023-04-23T00:32:10;100302.78;;;10.18;100.00
55675;BME280;41562;44.330;23.802;2023-04-23T00:34:37;100310.81;;;10.23;100.00
55675;BME280;41562;44.330;23.802;2023-04-23T00:37:05;100308.63;;;10.09;100.00
55675;BME280;41562;44.330;23.802;2023-04-23T00:39:32;100308.13;;;10.23;100.00
55675;BME280;41562;44.330;23.802;2023-04-23T00:41:59;100309.16;;;10.12;100.00
55675;BME280;41562;44.330;23.802;2023-04-23T00:44:27;100313.97;;;10.15;100.00
55675;BME280;41562;44.330;23.802;2023-04-23T00:46:54;100311.25;;;9.94;100.00
55675;BME280;41562;44.330;23.802;2023-04-23T00:49:22;100315.78;;;9.94;100.00
55675;BME280;41562;44.330;23.802;2023-04-23T00:51:50;100313.47;;;10.18;100.00
55675;BME280;41562;44.330;23.802;2023-04-23T00:54:17;100312.88;;;10.00;100.00
55675;BME280;41562;44.330;23.802;2023-04-23T00:56:44;100316.84;;;9.93;100.00
55675;BME280;41562;44.330;23.802;2023-04-23T00:59:11;100314.47;;;9.96;100.00
55675;BME280;41562;44.330;23.802;2023-04-23T01:01:39;100310.75;;;9.92;100.00
55675;BME280;41562;44.330;23.802;2023-04-23T01:04:08;100300.00;;;9.77;100.00
55675;BME280;41562;44.330;23.802;2023-04-23T01:06:36;100293.06;;;9.66;100.00
55675;BME280;41562;44.330;23.802;2023-04-23T01:09:03;100296.22;;;9.58;100.00
55675;BME280;41562;44.330;23.802;2023-04-23T01:11:31;100300.00;;;9.67;100.00
55675;BME280;41562;44.330;23.802;2023-04-23T01:13:59;100299.19;;;9.72;100.00
55675;BME280;41562;44.330;23.802;2023-04-23T01:16:27;100307.53;;;9.90;100.00
55675;BME280;41562;44.330;23.802;2023-04-23T01:18:54;100294.16;;;9.90;100.00
55675;BME280;41562;44.330;23.802;2023-04-23T01:21:22;100289.38;;;9.92;100.00
55675;BME280;41562;44.330;23.802;2023-04-23T01:23:50;100291.75;;;9.79;100.00
55675;BME280;41562;44.330;23.802;2023-04-23T01:26:17;100283.22;;;9.92;100.00
55675;BME280;41562;44.330;23.802;2023-04-23T01:28:44;100291.78;;;9.99;100.00
55675;BME280;41562;44.330;23.802;2023-04-23T01:31:12;100294.97;;;10.06;100.00
55675;BME280;41562;44.330;23.802;2023-04-23T01:33:40;100285.63;;;10.08;100.00
55675;BME280;41562;44.330;23.802;2023-04-23T01:36:08;100294.41;;;9.94;100.00
55675;BME280;41562;44.330;23.802;2023-04-23T01:38:37;100294.72;;;9.92;100.00
55675;BME280;41562;44.330;23.802;2023-04-23T01:41:04;100285.09;;;9.86;100.00
55675;BME280;41562;44.330;23.802;2023-04-23T01:43:32;100288.81;;;9.85;100.00
55675;BME280;41562;44.330;23.802;2023-04-23T01:45:59;100283.19;;;9.77;100.00
55675;BME280;41562;44.330;23.802;2023-04-23T01:48:27;100294.16;;;9.90;100.00
55675;BME280;41562;44.330;23.802;2023-04-23T01:50:55;100291.50;;;9.85;100.00
55675;BME280;41562;44.330;23.802;2023-04-23T01:53:22;100284.25;;;9.81;100.00
55675;BME280;41562;44.330;23.802;2023-04-23T01:55:50;100285.56;;;9.63;100.00
55675;BME280;41562;44.330;23.802;2023-04-23T01:58:21;100278.66;;;9.67;100.00
55675;BME280;41562;44.330;23.802;2023-04-23T02:00:49;100278.03;;;9.50;100.00
55675;BME280;41562;44.330;23.802;2023-04-23T02:03:16;100280.75;;;9.65;100.00
55675;BME280;41562;44.330;23.802;2023-04-23T02:05:44;100284.75;;;9.67;100.00
55675;BME280;41562;44.330;23.802;2023-04-23T02:08:11;100290.38;;;9.71;100.00
55675;BME280;41562;44.330;23.802;2023-04-23T02:10:38;100280.78;;;9.80;100.00
55675;BME280;41562;44.330;23.802;2023-04-23T02:13:06;100279.47;;;9.93;100.00
55675;BME280;41562;44.330;23.802;2023-04-23T02:15:33;100283.44;;;9.70;100.00
55675;BME280;41562;44.330;23.802;2023-04-23T02:18:01;100279.41;;;9.57;100.00
55675;BME280;41562;44.330;23.802;2023-04-23T02:20:29;100283.69;;;9.53;100.00
55675;BME280;41562;44.330;23.802;2023-04-23T02:22:57;100283.38;;;9.55;100.00
55675;BME280;41562;44.330;23.802;2023-04-23T02:25:24;100282.88;;;9.63;100.00
55675;BME280;41562;44.330;23.802;2023-04-23T02:27:51;100286.91;;;9.76;100.00
55675;BME280;41562;44.330;23.802;2023-04-23T02:30:18;100287.72;;;9.66;100.00
55675;BME280;41562;44.330;23.802;2023-04-23T02:32:46;100282.38;;;9.61;100.00
55675;BME280;41562;44.330;23.802;2023-04-23T02:35:13;100282.06;;;9.52;100.00
55675;BME280;41562;44.330;23.802;2023-04-23T02:37:40;100282.31;;;9.56;100.00
55675;BME280;41562;44.330;23.802;2023-04-23T02:40:08;100277.03;;;9.61;100.00
55675;BME280;41562;44.330;23.802;2023-04-23T02:42:37;100278.59;;;9.62;100.00
55675;BME280;41562;44.330;23.802;2023-04-23T02:45:07;100275.94;;;9.62;100.00
55675;BME280;41562;44.330;23.802;2023-04-23T02:47:34;100282.06;;;9.57;100.00
55675;BME280;41562;44.330;23.802;2023-04-23T02:50:01;100276.47;;;9.59;100.00
55675;BME280;41562;44.330;23.802;2023-04-23T02:52:28;100273.25;;;9.57;100.00
55675;BME280;41562;44.330;23.802;2023-04-23T02:54:56;100279.38;;;9.47;100.00
55675;BME280;41562;44.330;23.802;2023-04-23T02:57:24;100283.13;;;9.46;100.00
55675;BME280;41562;44.330;23.802;2023-04-23T02:59:51;100284.19;;;9.50;100.00
55675;BME280;41562;44.330;23.802;2023-04-23T03:02:18;100274.31;;;9.51;100.00
55675;BME280;41562;44.330;23.802;2023-04-23T03:04:46;100278.56;;;9.42;100.00
55675;BME280;41562;44.330;23.802;2023-04-23T03:07:14;100281.50;;;9.50;100.00
55675;BME280;41562;44.330;23.802;2023-04-23T03:09:41;100285.78;;;9.41;100.00
55675;BME280;41562;44.330;23.802;2023-04-23T03:12:09;100286.59;;;9.52;100.00
55675;BME280;41562;44.330;23.802;2023-04-23T03:14:36;100282.31;;;9.51;100.00
55675;BME280;41562;44.330;23.802;2023-04-23T03:17:03;100283.91;;;9.47;100.00
55675;BME280;41562;44.330;23.802;2023-04-23T03:19:31;100281.75;;;9.39;100.00
55675;BME280;41562;44.330;23.802;2023-04-23T03:21:58;100287.63;;;9.36;100.00
55675;BME280;41562;44.330;23.802;2023-04-23T03:24:25;100289.25;;;9.52;100.00
55675;BME280;41562;44.330;23.802;2023-04-23T03:26:53;100291.94;;;9.52;100.00
55675;BME280;41562;44.330;23.802;2023-04-23T03:29:20;100284.88;;;9.20;100.00
55675;BME280;41562;44.330;23.802;2023-04-23T03:31:47;100287.53;;;9.15;100.00
55675;BME280;41562;44.330;23.802;2023-04-23T03:34:14;100300.91;;;9.31;100.00
55675;BME280;41562;44.330;23.802;2023-04-23T03:36:42;100290.78;;;9.27;100.00
55675;BME280;41562;44.330;23.802;2023-04-23T03:39:10;100296.06;;;9.17;100.00
55675;BME280;41562;44.330;23.802;2023-04-23T03:41:38;100288.84;;;9.13;100.00
55675;BME280;41562;44.330;23.802;2023-04-23T03:44:13;100287.31;;;9.22;100.00
55675;BME280;41562;44.330;23.802;2023-04-23T03:46:40;100298.72;;;9.17;100.00
55675;BME280;41562;44.330;23.802;2023-04-23T03:49:08;100294.75;;;9.25;100.00
55675;BME280;41562;44.330;23.802;2023-04-23T03:51:35;100297.75;;;9.39;100.00
55675;BME280;41562;44.330;23.802;2023-04-23T03:54:02;100312.72;;;9.45;100.00
55675;BME280;41562;44.330;23.802;2023-04-23T03:56:30;100311.13;;;9.44;100.00
55675;BME280;41562;44.330;23.802;2023-04-23T03:58:58;100316.78;;;9.67;100.00
55675;BME280;41562;44.330;23.802;2023-04-23T04:01:28;100312.25;;;9.68;100.00
55675;BME280;41562;44.330;23.802;2023-04-23T04:03:56;100306.41;;;9.61;100.00
55675;BME280;41562;44.330;23.802;2023-04-23T04:06:24;100314.06;;;11.35;100.00
55675;BME280;41562;44.330;23.802;2023-04-23T04:08:53;100323.28;;;13.08;95.32
55675;BME280;41562;44.330;23.802;2023-04-23T04:11:21;100322.56;;;13.26;92.27
55675;BME280;41562;44.330;23.802;2023-04-23T04:13:49;100331.03;;;12.57;90.11
55675;BME280;41562;44.330;23.802;2023-04-23T04:16:17;100324.53;;;12.29;93.86
55675;BME280;41562;44.330;23.802;2023-04-23T04:18:45;100338.59;;;13.55;87.47
55675;BME280;41562;44.330;23.802;2023-04-23T04:21:12;100332.81;;;14.42;82.62
55675;BME280;41562;44.330;23.802;2023-04-23T04:23:40;100338.13;;;14.93;79.85
55675;BME280;41562;44.330;23.802;2023-04-23T04:26:07;100340.22;;;12.46;86.59
55675;BME280;41562;44.330;23.802;2023-04-23T04:28:34;100345.16;;;11.20;94.45
55675;BME280;41562;44.330;23.802;2023-04-23T04:31:02;100345.00;;;10.66;98.65
55675;BME280;41562;44.330;23.802;2023-04-23T04:33:30;100342.59;;;10.85;100.00
55675;BME280;41562;44.330;23.802;2023-04-23T04:35:58;100340.94;;;12.23;94.61
55675;BME280;41562;44.330;23.802;2023-04-23T04:38:26;100342.47;;;12.68;91.04
55675;BME280;41562;44.330;23.802;2023-04-23T04:40:54;100346.69;;;13.32;86.38
55675;BME280;41562;44.330;23.802;2023-04-23T04:43:21;100353.25;;;13.44;85.03
55675;BME280;41562;44.330;23.802;2023-04-23T04:45:49;100350.09;;;12.56;87.63
55675;BME280;41562;44.330;23.802;2023-04-23T04:48:16;100354.63;;;12.89;88.57
55675;BME280;41562;44.330;23.802;2023-04-23T04:50:44;100350.19;;;11.42;96.36
55675;BME280;41562;44.330;23.802;2023-04-23T04:53:12;100349.78;;;10.89;100.00
55675;BME280;41562;44.330;23.802;2023-04-23T04:55:39;100351.97;;;10.72;100.00
55675;BME280;41562;44.330;23.802;2023-04-23T04:58:06;100357.31;;;10.67;100.00
55675;BME280;41562;44.330;23.802;2023-04-23T05:00:34;100357.31;;;10.72;100.00
55675;BME280;41562;44.330;23.802;2023-04-23T05:03:01;100352.75;;;10.78;100.00
55675;BME280;41562;44.330;23.802;2023-04-23T05:05:31;100347.09;;;10.95;100.00
55675;BME280;41562;44.330;23.802;2023-04-23T05:08:01;100348.72;;;10.96;100.00
55675;BME280;41562;44.330;23.802;2023-04-23T05:10:29;100344.66;;;11.13;100.00
55675;BME280;41562;44.330;23.802;2023-04-23T05:12:56;100355.09;;;11.10;100.00
55675;BME280;41562;44.330;23.802;2023-04-23T05:15:27;100347.00;;;11.35;100.00
55675;BME280;41562;44.330;23.802;2023-04-23T05:17:54;100345.09;;;11.41;100.00
55675;BME280;41562;44.330;23.802;2023-04-23T05:20:22;100348.06;;;11.34;100.00
55675;BME280;41562;44.330;23.802;2023-04-23T05:22:49;100357.72;;;11.35;100.00
55675;BME280;41562;44.330;23.802;2023-04-23T05:25:16;100361.44;;;11.39;100.00
55675;BME280;41562;44.330;23.802;2023-04-23T05:27:44;100356.09;;;11.34;100.00
55675;BME280;41562;44.330;23.802;2023-04-23T05:30:11;100355.75;;;11.51;100.00
55675;BME280;41562;44.330;23.802;2023-04-23T05:32:39;100353.34;;;11.59;100.00
55675;BME280;41562;44.330;23.802;2023-04-23T05:35:06;100351.22;;;11.56;100.00
55675;BME280;41562;44.330;23.802;2023-04-23T05:37:34;100352.22;;;11.76;100.00
55675;BME280;41562;44.330;23.802;2023-04-23T05:40:01;100358.31;;;11.91;100.00
55675;BME280;41562;44.330;23.802;2023-04-23T05:42:29;100354.78;;;11.96;100.00
55675;BME280;41562;44.330;23.802;2023-04-23T05:44:56;100356.84;;;12.09;100.00
55675;BME280;41562;44.330;23.802;2023-04-23T05:47:23;100365.38;;;12.16;100.00
55675;BME280;41562;44.330;23.802;2023-04-23T05:49:50;100361.53;;;12.32;100.00
55675;BME280;41562;44.330;23.802;2023-04-23T05:52:18;100362.56;;;12.36;99.20
55675;BME280;41562;44.330;23.802;2023-04-23T05:54:45;100365.38;;;12.55;98.67
55675;BME280;41562;44.330;23.802;2023-04-23T05:57:13;100362.50;;;13.04;94.90
55675;BME280;41562;44.330;23.802;2023-04-23T05:59:40;100363.06;;;12.43;95.60
55675;BME280;41562;44.330;23.802;2023-04-23T06:02:09;100359.34;;;12.97;97.91
55675;BME280;41562;44.330;23.802;2023-04-23T06:04:36;100356.34;;;13.04;95.39
55675;BME280;41562;44.330;23.802;2023-04-23T06:07:05;100359.78;;;13.14;91.25
55675;BME280;41562;44.330;23.802;2023-04-23T06:09:32;100356.75;;;13.45;89.57
55675;BME280;41562;44.330;23.802;2023-04-23T06:12:00;100364.31;;;13.61;90.13
55675;BME280;41562;44.330;23.802;2023-04-23T06:14:28;100359.13;;;14.07;86.94
55675;BME280;41562;44.330;23.802;2023-04-23T06:16:55;100356.00;;;14.19;87.28
55675;BME280;41562;44.330;23.802;2023-04-23T06:19:23;100357.81;;;14.24;85.99
55675;BME280;41562;44.330;23.802;2023-04-23T06:21:50;100365.88;;;14.24;82.89
55675;BME280;41562;44.330;23.802;2023-04-23T06:24:18;100360.13;;;14.30;83.29
55675;BME280;41562;44.330;23.802;2023-04-23T06:26:45;100364.19;;;14.65;84.54
55675;BME280;41562;44.330;23.802;2023-04-23T06:29:12;100365.59;;;15.09;78.95
55675;BME280;41562;44.330;23.802;2023-04-23T06:31:40;100363.44;;;14.78;80.29
55675;BME280;41562;44.330;23.802;2023-04-23T06:34:07;100362.03;;;15.54;82.55
55675;BME280;41562;44.330;23.802;2023-04-23T06:36:35;100357.72;;;15.40;77.49
55675;BME280;41562;44.330;23.802;2023-04-23T06:39:02;100367.50;;;15.77;80.49
55675;BME280;41562;44.330;23.802;2023-04-23T06:41:29;100357.75;;;15.67;75.12
55675;BME280;41562;44.330;23.802;2023-04-23T06:43:57;100356.00;;;15.85;74.86
55675;BME280;41562;44.330;23.802;2023-04-23T06:46:25;100351.72;;;15.84;72.51
55675;BME280;41562;44.330;23.802;2023-04-23T06:48:52;100357.75;;;16.03;71.80
55675;BME280;41562;44.330;23.802;2023-04-23T06:51:20;100353.66;;;16.05;72.65
55675;BME280;41562;44.330;23.802;2023-04-23T06:53:47;100364.28;;;16.46;73.14
55675;BME280;41562;44.330;23.802;2023-04-23T06:56:14;100354.84;;;16.58;73.12
55675;BME280;41562;44.330;23.802;2023-04-23T06:58:41;100354.31;;;16.25;69.79
55675;BME280;41562;44.330;23.802;2023-04-23T07:01:13;100355.38;;;16.60;71.60
55675;BME280;41562;44.330;23.802;2023-04-23T07:03:40;100361.88;;;17.20;73.26
55675;BME280;41562;44.330;23.802;2023-04-23T07:06:07;100368.28;;;16.94;70.12
55675;BME280;41562;44.330;23.802;2023-04-23T07:08:35;100362.22;;;17.27;69.24
55675;BME280;41562;44.330;23.802;2023-04-23T07:11:02;100365.09;;;17.71;72.76
55675;BME280;41562;44.330;23.802;2023-04-23T07:13:30;100368.97;;;17.39;68.90
55675;BME280;41562;44.330;23.802;2023-04-23T07:15:57;100360.03;;;17.69;68.48
55675;BME280;41562;44.330;23.802;2023-04-23T07:18:24;100363.31;;;17.57;68.44
55675;BME280;41562;44.330;23.802;2023-04-23T07:20:52;100361.97;;;17.46;68.14
55675;BME280;41562;44.330;23.802;2023-04-23T07:23:22;100357.63;;;17.67;70.29
55675;BME280;41562;44.330;23.802;2023-04-23T07:25:50;100357.09;;;17.57;67.54
55675;BME280;41562;44.330;23.802;2023-04-23T07:28:18;100349.72;;;17.88;67.62
55675;BME280;41562;44.330;23.802;2023-04-23T07:30:46;100364.78;;;17.24;66.54
55675;BME280;41562;44.330;23.802;2023-04-23T07:33:14;100355.94;;;18.15;67.06
55675;BME280;41562;44.330;23.802;2023-04-23T07:35:41;100361.19;;;18.20;66.73
55675;BME280;41562;44.330;23.802;2023-04-23T07:38:09;100355.75;;;18.37;65.62
55675;BME280;41562;44.330;23.802;2023-04-23T07:40:36;100356.88;;;18.36;62.70
55675;BME280;41562;44.330;23.802;2023-04-23T07:43:05;100358.38;;;18.97;66.50
55675;BME280;41562;44.330;23.802;2023-04-23T07:45:33;100349.72;;;19.12;66.11
55675;BME280;41562;44.330;23.802;2023-04-23T07:48:00;100357.50;;;18.76;62.51
55675;BME280;41562;44.330;23.802;2023-04-23T07:50:28;100352.41;;;18.48;61.84
55675;BME280;41562;44.330;23.802;2023-04-23T07:52:55;100352.88;;;18.42;64.88
55675;BME280;41562;44.330;23.802;2023-04-23T07:55:23;100352.88;;;18.42;62.30
55675;BME280;41562;44.330;23.802;2023-04-23T07:57:50;100361.75;;;18.85;63.33
55675;BME280;41562;44.330;23.802;2023-04-23T08:00:18;100353.31;;;18.96;62.09
55675;BME280;41562;44.330;23.802;2023-04-23T08:02:46;100357.16;;;19.62;61.85
55675;BME280;41562;44.330;23.802;2023-04-23T08:05:13;100358.19;;;19.11;60.00
55675;BME280;41562;44.330;23.802;2023-04-23T08:07:41;100349.63;;;19.67;61.84
55675;BME280;41562;44.330;23.802;2023-04-23T08:10:08;100350.81;;;19.20;60.13
55675;BME280;41562;44.330;23.802;2023-04-23T08:12:36;100343.16;;;19.60;61.28
55675;BME280;41562;44.330;23.802;2023-04-23T08:15:04;100350.84;;;19.79;60.59
55675;BME280;41562;44.330;23.802;2023-04-23T08:17:32;100349.06;;;19.83;58.82
55675;BME280;41562;44.330;23.802;2023-04-23T08:19:59;100350.31;;;20.06;58.23
55675;BME280;41562;44.330;23.802;2023-04-23T08:22:27;100348.31;;;19.74;57.28
55675;BME280;41562;44.330;23.802;2023-04-23T08:24:54;100356.16;;;18.91;56.29
55675;BME280;41562;44.330;23.802;2023-04-23T08:27:21;100348.00;;;19.08;56.39
55675;BME280;41562;44.330;23.802;2023-04-23T08:29:49;100352.44;;;19.50;56.17
55675;BME280;41562;44.330;23.802;2023-04-23T08:32:16;100341.56;;;19.80;57.04
55675;BME280;41562;44.330;23.802;2023-04-23T08:34:44;100341.00;;;19.95;58.36
55675;BME280;41562;44.330;23.802;2023-04-23T08:37:12;100340.66;;;19.76;55.01
55675;BME280;41562;44.330;23.802;2023-04-23T08:39:53;100334.75;;;19.74;55.29
55675;BME280;41562;44.330;23.802;2023-04-23T08:42:47;100333.13;;;20.02;57.26
55675;BME280;41562;44.330;23.802;2023-04-23T08:45:16;100329.69;;;20.34;55.90
55675;BME280;41562;44.330;23.802;2023-04-23T08:47:44;100329.44;;;20.60;55.24
55675;BME280;41562;44.330;23.802;2023-04-23T08:50:15;100332.44;;;20.46;53.29
55675;BME280;41562;44.330;23.802;2023-04-23T08:52:49;100325.19;;;20.30;52.14
55675;BME280;41562;44.330;23.802;2023-04-23T08:55:20;100326.97;;;20.34;51.83
55675;BME280;41562;44.330;23.802;2023-04-23T08:57:48;100317.31;;;20.70;52.21
55675;BME280;41562;44.330;23.802;2023-04-23T09:00:18;100320.47;;;20.60;52.00
55675;BME280;41562;44.330;23.802;2023-04-23T09:02:47;100312.84;;;20.86;54.96
55675;BME280;41562;44.330;23.802;2023-04-23T09:05:17;100318.09;;;19.84;50.87
55675;BME280;41562;44.330;23.802;2023-04-23T09:07:45;100320.41;;;19.94;51.88
55675;BME280;41562;44.330;23.802;2023-04-23T09:10:13;100312.06;;;19.99;50.28
55675;BME280;41562;44.330;23.802;2023-04-23T09:12:44;100310.00;;;20.17;52.46
55675;BME280;41562;44.330;23.802;2023-04-23T09:15:15;100309.66;;;20.96;50.66
55675;BME280;41562;44.330;23.802;2023-04-23T09:17:45;100310.38;;;20.27;48.55
55675;BME280;41562;44.330;23.802;2023-04-23T09:20:14;100309.75;;;20.42;50.27
55675;BME280;41562;44.330;23.802;2023-04-23T09:22:47;100307.66;;;20.48;49.70
55675;BME280;41562;44.330;23.802;2023-04-23T09:25:17;100306.06;;;20.92;49.69
55675;BME280;41562;44.330;23.802;2023-04-23T09:27:45;100312.72;;;19.75;49.07
55675;BME280;41562;44.330;23.802;2023-04-23T09:30:14;100312.84;;;19.58;51.19
55675;BME280;41562;44.330;23.802;2023-04-23T09:32:44;100304.69;;;20.20;56.15
55675;BME280;41562;44.330;23.802;2023-04-23T09:35:13;100310.78;;;19.76;51.30
55675;BME280;41562;44.330;23.802;2023-04-23T09:37:42;100303.97;;;20.11;53.77
55675;BME280;41562;44.330;23.802;2023-04-23T09:40:12;100307.16;;;19.42;52.80
55675;BME280;41562;44.330;23.802;2023-04-23T09:42:47;100294.59;;;19.88;53.04
55675;BME280;41562;44.330;23.802;2023-04-23T09:45:15;100288.09;;;20.01;53.32
55675;BME280;41562;44.330;23.802;2023-04-23T09:47:56;100289.53;;;20.19;54.30
55675;BME280;41562;44.330;23.802;2023-04-23T09:50:38;100284.03;;;20.07;51.67
55675;BME280;41562;44.330;23.802;2023-04-23T09:53:08;100280.41;;;20.03;55.14
55675;BME280;41562;44.330;23.802;2023-04-23T09:56:05;100281.34;;;19.65;50.40
55675;BME280;41562;44.330;23.802;2023-04-23T09:58:33;100281.53;;;20.02;47.42
55675;BME280;41562;44.330;23.802;2023-04-23T10:01:07;100288.97;;;20.26;47.37
55675;BME280;41562;44.330;23.802;2023-04-23T10:03:35;100285.31;;;19.47;50.15
55675;BME280;41562;44.330;23.802;2023-04-23T10:06:14;100281.50;;;18.46;50.61
55675;BME280;41562;44.330;23.802;2023-04-23T10:09:04;100273.41;;;18.55;50.38
55675;BME280;41562;44.330;23.802;2023-04-23T10:11:38;100269.19;;;19.42;48.40
55675;BME280;41562;44.330;23.802;2023-04-23T10:14:06;100260.13;;;20.21;48.89
55675;BME280;41562;44.330;23.802;2023-04-23T10:16:35;100261.94;;;19.55;50.67
55675;BME280;41562;44.330;23.802;2023-04-23T10:19:18;100263.34;;;19.61;50.20
55675;BME280;41562;44.330;23.802;2023-04-23T10:21:50;100252.22;;;20.28;50.16
55675;BME280;41562;44.330;23.802;2023-04-23T10:24:33;100256.16;;;20.52;46.88
55675;BME280;41562;44.330;23.802;2023-04-23T10:27:02;100252.56;;;20.72;45.10
55675;BME280;41562;44.330;23.802;2023-04-23T10:29:36;100249.94;;;20.63;43.15
55675;BME280;41562;44.330;23.802;2023-04-23T10:32:05;100245.84;;;20.57;44.60
55675;BME280;41562;44.330;23.802;2023-04-23T10:34:33;100239.44;;;20.98;45.64
55675;BME280;41562;44.330;23.802;2023-04-23T10:37:00;100229.56;;;21.06;48.00
55675;BME280;41562;44.330;23.802;2023-04-23T10:39:32;100225.72;;;21.31;45.95
55675;BME280;41562;44.330;23.802;2023-04-23T10:42:00;100228.66;;;21.26;44.24
55675;BME280;41562;44.330;23.802;2023-04-23T10:44:36;100229.81;;;20.76;43.12
55675;BME280;41562;44.330;23.802;2023-04-23T10:47:12;100236.34;;;20.51;43.32
55675;BME280;41562;44.330;23.802;2023-04-23T10:49:41;100225.56;;;20.42;44.78
55675;BME280;41562;44.330;23.802;2023-04-23T10:52:13;100227.84;;;20.53;45.36
55675;BME280;41562;44.330;23.802;2023-04-23T10:54:51;100229.25;;;20.95;45.38
55675;BME280;41562;44.330;23.802;2023-04-23T10:57:22;100223.47;;;20.84;46.61
55675;BME280;41562;44.330;23.802;2023-04-23T10:59:54;100214.19;;;20.98;45.75
55675;BME280;41562;44.330;23.802;2023-04-23T11:02:22;100205.28;;;19.95;48.04
55675;BME280;41562;44.330;23.802;2023-04-23T11:04:57;100197.72;;;20.33;48.79
55675;BME280;41562;44.330;23.802;2023-04-23T11:07:32;100198.88;;;20.81;48.92
55675;BME280;41562;44.330;23.802;2023-04-23T11:10:10;100198.31;;;20.75;45.61
55675;BME280;41562;44.330;23.802;2023-04-23T11:12:38;100194.56;;;20.43;46.81
55675;BME280;41562;44.330;23.802;2023-04-23T11:15:13;100190.16;;;20.63;45.38
55675;BME280;41562;44.330;23.802;2023-04-23T11:20:13;100189.13;;;21.04;44.92
55675;BME280;41562;44.330;23.802;2023-04-23T11:22:43;100196.03;;;21.02;43.32
55675;BME280;41562;44.330;23.802;2023-04-23T11:25:13;100191.97;;;21.20;42.86
55675;BME280;41562;44.330;23.802;2023-04-23T11:27:42;100194.81;;;21.11;42.13
55675;BME280;41562;44.330;23.802;2023-04-23T11:30:16;100186.16;;;21.34;42.15
55675;BME280;41562;44.330;23.802;2023-04-23T11:32:49;100191.06;;;21.16;43.46
55675;BME280;41562;44.330;23.802;2023-04-23T11:35:20;100187.00;;;20.85;43.19
55675;BME280;41562;44.330;23.802;2023-04-23T11:37:48;100189.56;;;20.33;44.91
55675;BME280;41562;44.330;23.802;2023-04-23T11:40:17;100178.06;;;20.49;45.84
55675;BME280;41562;44.330;23.802;2023-04-23T11:42:50;100175.75;;;20.38;45.72
55675;BME280;41562;44.330;23.802;2023-04-23T11:47:51;100180.97;;;20.56;44.86
55675;BME280;41562;44.330;23.802;2023-04-23T11:50:20;100166.91;;;21.26;46.14
55675;BME280;41562;44.330;23.802;2023-04-23T11:52:48;100165.03;;;21.55;45.38
55675;BME280;41562;44.330;23.802;2023-04-23T11:55:16;100167.56;;;21.91;46.20
55675;BME280;41562;44.330;23.802;2023-04-23T11:57:48;100163.75;;;20.88;47.54
55675;BME280;41562;44.330;23.802;2023-04-23T12:03:01;100156.31;;;20.49;45.69
55675;BME280;41562;44.330;23.802;2023-04-23T12:05:39;100149.06;;;20.65;45.73
55675;BME280;41562;44.330;23.802;2023-04-23T12:08:18;100138.50;;;20.27;47.08
55675;BME280;41562;44.330;23.802;2023-04-23T12:10:46;100138.03;;;20.25;48.94
55675;BME280;41562;44.330;23.802;2023-04-23T12:13:24;100134.72;;;20.07;50.03
55675;BME280;41562;44.330;23.802;2023-04-23T12:15:57;100134.97;;;20.14;50.54
55675;BME280;41562;44.330;23.802;2023-04-23T12:18:29;100133.66;;;20.69;47.62
55675;BME280;41562;44.330;23.802;2023-04-23T12:21:10;100127.56;;;20.35;47.09
55675;BME280;41562;44.330;23.802;2023-04-23T12:23:40;100124.94;;;20.63;48.43
55675;BME280;41562;44.330;23.802;2023-04-23T12:26:12;100129.53;;;20.02;46.96
55675;BME280;41562;44.330;23.802;2023-04-23T12:28:50;100117.66;;;20.31;49.20
55675;BME280;41562;44.330;23.802;2023-04-23T12:31:22;100110.72;;;19.85;47.41
55675;BME280;41562;44.330;23.802;2023-04-23T12:33:56;100108.66;;;19.82;48.31
55675;BME280;41562;44.330;23.802;2023-04-23T12:36:27;100107.59;;;20.19;51.70
55675;BME280;41562;44.330;23.802;2023-04-23T12:39:25;100104.31;;;20.86;45.63
55675;BME280;41562;44.330;23.802;2023-04-23T12:42:13;100092.22;;;20.23;46.19
55675;BME280;41562;44.330;23.802;2023-04-23T12:44:41;100094.81;;;20.07;46.95
55675;BME280;41562;44.330;23.802;2023-04-23T12:47:09;100090.94;;;19.96;48.02
55675;BME280;41562;44.330;23.802;2023-04-23T12:49:38;100093.09;;;19.91;47.89
55675;BME280;41562;44.330;23.802;2023-04-23T12:52:07;100084.41;;;20.22;47.48
55675;BME280;41562;44.330;23.802;2023-04-23T12:54:39;100081.50;;;20.39;48.17